createdAt,value
2023-02-17T06:33:50.270Z,12.93
2023-02-17T06:35:50.903Z,12.60
2023-02-17T06:37:13.310Z,12.93
2023-02-17T06:38:36.756Z,12.85
2023-02-17T06:40:02.524Z,14.02
2023-02-17T06:41:25.882Z,14.27
2023-02-17T06:42:49.454Z,13.75
2023-02-17T06:44:12.885Z,13.95
2023-02-17T06:45:37.151Z,14.63
2023-02-17T06:47:00.600Z,14.00
2023-02-17T06:48:24.030Z,14.13
2023-02-17T06:49:47.456Z,12.98
2023-02-17T06:51:12.287Z,12.73
2023-02-17T06:52:35.762Z,13.55
2023-02-17T06:53:59.416Z,13.75
2023-02-17T06:55:22.872Z,13.35
2023-02-17T06:56:46.259Z,13.30
2023-02-17T06:58:09.627Z,13.02
2023-02-17T06:59:33.728Z,13.05
2023-02-17T07:00:57.127Z,13.68
2023-02-17T07:02:20.849Z,12.77
2023-02-17T07:03:44.327Z,12.75
2023-02-17T07:05:07.452Z,11.57
2023-02-17T07:06:32.244Z,13.43
2023-02-17T07:07:57.125Z,11.77
2023-02-17T07:09:20.560Z,11.73
2023-02-17T07:10:44.024Z,11.77
2023-02-17T07:12:08.149Z,11.75
2023-02-17T07:13:32.341Z,12.05
2023-02-17T07:14:55.782Z,11.70
2023-02-17T07:16:19.440Z,12.23
2023-02-17T07:17:42.842Z,13.48
2023-02-17T07:19:06.250Z,12.50
2023-02-17T07:20:31.910Z,11.27
2023-02-17T07:21:56.711Z,12.43
2023-02-17T07:23:20.174Z,11.98
2023-02-17T07:24:43.586Z,11.07
2023-02-17T07:26:09.177Z,11.82
2023-02-17T07:27:32.704Z,10.98
2023-02-17T07:28:56.091Z,11.07
2023-02-17T07:30:19.903Z,11.75
2023-02-17T07:31:43.503Z,10.85
2023-02-17T07:33:07.226Z,11.70
2023-02-17T07:34:30.620Z,10.77
2023-02-17T07:35:54.185Z,11.30
2023-02-17T07:37:20.076Z,11.00
2023-02-17T07:38:44.155Z,10.70
2023-02-17T07:40:08.857Z,12.05
2023-02-17T07:41:34.415Z,9.82
2023-02-17T07:42:59.218Z,11.30
2023-02-17T07:44:22.621Z,10.50
2023-02-17T07:45:46.072Z,9.05
2023-02-17T07:47:11.264Z,10.45
2023-02-17T07:48:33.981Z,10.40
2023-02-17T07:49:57.331Z,10.18
2023-02-17T07:51:22.388Z,10.30
2023-02-17T07:52:47.357Z,11.00
2023-02-17T07:54:09.772Z,10.85
2023-02-17T07:55:33.528Z,10.68
2023-02-17T07:56:56.942Z,10.35
2023-02-17T07:58:20.498Z,10.48
2023-02-17T07:59:43.904Z,9.48
2023-02-17T08:01:08.710Z,9.80
2023-02-17T08:02:32.103Z,10.13
2023-02-17T08:03:57.055Z,10.18
2023-02-17T08:05:20.515Z,8.55
2023-02-17T08:06:43.913Z,9.90
2023-02-17T08:08:26.472Z,10.27
2023-02-17T08:10:07.441Z,9.68
2023-02-17T08:11:50.004Z,9.25
2023-02-17T08:13:22.497Z,9.00
2023-02-17T08:14:45.886Z,9.00
2023-02-17T08:16:09.697Z,8.95
2023-02-17T08:17:33.270Z,9.07
2023-02-17T08:18:57.283Z,9.20
2023-02-17T08:20:21.025Z,9.38
2023-02-17T08:21:45.216Z,8.95
2023-02-17T08:23:10.164Z,9.07
2023-02-17T08:24:33.612Z,9.38
2023-02-17T08:25:59.151Z,10.02
2023-02-17T08:27:22.658Z,8.55
2023-02-17T08:28:46.411Z,8.63
2023-02-17T08:30:10.984Z,8.13
2023-02-17T08:31:36.594Z,8.65
2023-02-17T08:33:00.112Z,8.95
2023-02-17T08:34:23.514Z,9.57
2023-02-17T08:35:47.086Z,9.10
2023-02-17T08:37:11.771Z,8.75
2023-02-17T08:38:37.129Z,8.90
2023-02-17T08:40:00.625Z,8.82
2023-02-17T08:41:27.570Z,8.88
2023-02-17T08:42:50.981Z,8.15
2023-02-17T08:44:17.843Z,10.10
2023-02-17T08:45:41.263Z,8.55
2023-02-17T08:47:06.348Z,9.23
2023-02-17T08:48:29.740Z,8.68
2023-02-17T08:49:53.262Z,9.63
2023-02-17T08:51:18.256Z,8.70
2023-02-17T08:52:41.707Z,9.30
2023-02-17T08:54:07.519Z,8.70
2023-02-17T08:55:47.279Z,9.10
2023-02-17T08:57:11.940Z,8.68
2023-02-17T08:58:35.621Z,8.32
2023-02-17T08:59:58.983Z,8.77
2023-02-17T09:01:24.921Z,9.02
2023-02-17T09:02:48.387Z,8.48
2023-02-17T09:04:13.878Z,8.35
2023-02-17T09:05:37.426Z,9.95
2023-02-17T09:07:01.237Z,8.95
2023-02-17T09:08:25.038Z,9.07
2023-02-17T09:09:49.839Z,9.13
2023-02-17T09:11:15.342Z,8.82
2023-02-17T09:12:38.876Z,8.73
2023-02-17T09:14:02.496Z,9.60
2023-02-17T09:15:26.168Z,9.18
2023-02-17T09:16:49.608Z,8.60
2023-02-17T09:18:13.126Z,8.35
2023-02-17T09:19:40.730Z,9.15
2023-02-17T09:21:07.861Z,8.80
2023-02-17T09:22:32.542Z,9.00
2023-02-17T09:23:56.165Z,8.27
2023-02-17T09:25:21.057Z,8.85
2023-02-17T09:26:44.612Z,8.35
2023-02-17T09:28:08.134Z,8.88
2023-02-17T09:29:31.641Z,9.20
2023-02-17T09:30:55.072Z,8.73
2023-02-17T09:32:18.645Z,8.93
2023-02-17T09:33:42.588Z,9.18
2023-02-17T09:35:06.931Z,8.82
2023-02-17T09:36:32.659Z,9.13
2023-02-17T09:37:56.250Z,9.18
2023-02-17T09:39:19.670Z,8.95
2023-02-17T09:40:48.396Z,9.70
2023-02-17T09:42:17.844Z,8.73
2023-02-17T09:43:41.293Z,8.95
2023-02-17T09:45:08.577Z,8.93
2023-02-17T09:46:34.927Z,8.75
2023-02-17T09:48:01.193Z,8.57
2023-02-17T09:49:27.309Z,9.20
2023-02-17T09:50:56.173Z,9.27
2023-02-17T09:52:24.351Z,8.90
2023-02-17T09:53:52.914Z,9.10
2023-02-17T09:55:19.814Z,9.25
2023-02-17T09:56:48.587Z,8.77
2023-02-17T09:58:16.706Z,8.80
2023-02-17T09:59:42.887Z,8.65
2023-02-17T10:01:12.301Z,8.60
2023-02-17T10:02:40.585Z,8.40
2023-02-17T10:04:10.207Z,9.45
2023-02-17T10:05:37.995Z,9.05
2023-02-17T10:07:03.656Z,9.57
2023-02-17T10:08:29.795Z,9.50
2023-02-17T10:09:55.061Z,8.88
2023-02-17T10:11:25.432Z,8.70
2023-02-17T10:12:53.930Z,9.02
2023-02-17T10:14:22.869Z,9.18
2023-02-17T10:15:50.239Z,8.98
2023-02-17T10:17:19.225Z,9.20
2023-02-17T10:18:46.835Z,9.68
2023-02-17T10:20:13.868Z,8.82
2023-02-17T10:21:40.509Z,8.75
2023-02-17T10:23:07.623Z,8.68
2023-02-17T10:24:31.210Z,9.30
2023-02-17T10:26:07.403Z,8.40
2023-02-17T10:27:38.276Z,9.35
2023-02-17T10:29:07.626Z,8.68
2023-02-17T10:30:35.675Z,9.40
2023-02-17T10:32:06.753Z,8.27
2023-02-17T10:33:32.631Z,8.85
2023-02-17T10:35:15.564Z,8.23
2023-02-17T10:36:48.174Z,8.98
2023-02-17T10:38:18.127Z,9.32
2023-02-17T10:39:49.207Z,9.30
2023-02-17T10:41:14.948Z,9.30
2023-02-17T10:42:39.471Z,8.82
2023-02-17T10:44:08.053Z,9.43
2023-02-17T10:45:41.300Z,9.15
2023-02-17T10:47:06.039Z,8.63
2023-02-17T10:48:34.605Z,9.15
2023-02-17T10:49:58.590Z,8.23
2023-02-17T10:51:24.156Z,8.95
2023-02-17T10:52:47.895Z,9.07
2023-02-17T10:54:17.759Z,9.07
2023-02-17T10:55:45.222Z,9.05
2023-02-17T10:57:12.286Z,9.45
2023-02-17T10:58:38.272Z,8.50
2023-02-17T11:00:03.742Z,9.73
2023-02-17T11:01:28.571Z,9.05
2023-02-17T11:02:52.660Z,10.57
2023-02-17T11:04:16.097Z,9.38
2023-02-17T11:05:39.678Z,8.20
2023-02-17T11:07:04.021Z,9.75
2023-02-17T11:08:33.250Z,9.43
2023-02-17T11:10:02.397Z,9.65
2023-02-17T11:11:27.214Z,10.77
2023-02-17T11:12:51.837Z,9.23
2023-02-17T11:14:20.682Z,10.05
2023-02-17T11:15:47.969Z,10.63
2023-02-17T11:17:16.492Z,9.98
2023-02-17T11:18:42.743Z,9.40
2023-02-17T11:20:09.371Z,9.10
2023-02-17T11:21:34.156Z,10.45
2023-02-17T11:23:04.696Z,8.77
2023-02-17T11:24:29.097Z,10.23
2023-02-17T11:26:05.204Z,9.20
2023-02-17T11:27:29.034Z,9.52
2023-02-17T11:28:52.578Z,8.98
2023-02-17T11:30:18.636Z,9.10
2023-02-17T11:31:44.330Z,8.25
2023-02-17T11:33:14.528Z,9.55
2023-02-17T11:34:40.062Z,8.70
2023-02-17T11:36:03.522Z,9.27
2023-02-17T11:37:27.846Z,9.13
2023-02-17T11:41:27.289Z,8.18
2023-02-17T11:42:57.244Z,8.45
2023-02-17T11:44:28.062Z,7.82
2023-02-17T11:46:00.929Z,8.18
2023-02-17T11:47:34.037Z,8.50
2023-02-17T11:49:06.221Z,8.32
2023-02-17T11:50:41.178Z,7.25
2023-02-17T11:52:18.260Z,7.10
2023-02-17T11:53:50.088Z,8.27
2023-02-17T11:55:22.254Z,8.38
2023-02-17T11:56:52.329Z,8.10
2023-02-17T11:58:28.720Z,7.68
2023-02-17T12:00:00.934Z,8.13
2023-02-17T12:01:37.078Z,7.25
2023-02-17T12:03:30.956Z,7.28
2023-02-17T12:05:11.369Z,7.40
2023-02-17T12:06:40.938Z,7.93
2023-02-17T12:08:13.141Z,7.75
2023-02-17T12:09:42.606Z,7.22
2023-02-17T12:11:11.228Z,7.35
2023-02-17T12:12:44.255Z,6.68
2023-02-17T12:14:20.939Z,6.15
2023-02-17T12:15:56.961Z,6.78
2023-02-17T12:17:26.579Z,6.65
2023-02-17T12:18:57.985Z,6.32
2023-02-17T12:20:41.553Z,5.55
2023-02-17T12:22:15.266Z,5.88
2023-02-17T12:24:03.846Z,6.20
2023-02-17T12:25:30.235Z,6.63
2023-02-17T12:27:00.386Z,6.90
2023-02-17T12:28:47.384Z,8.45
2023-02-17T12:30:28.511Z,7.00
2023-02-17T12:32:14.810Z,6.00
2023-02-17T12:33:50.281Z,7.03
2023-02-17T12:35:19.763Z,5.80
2023-02-17T12:36:44.555Z,6.75
2023-02-17T12:38:12.867Z,6.20
2023-02-17T12:39:42.646Z,7.30
2023-02-17T12:41:08.758Z,6.45
2023-02-17T12:42:34.678Z,6.18
2023-02-17T12:44:01.057Z,5.07
2023-02-17T12:45:34.961Z,6.25
2023-02-17T12:46:59.758Z,5.47
2023-02-17T12:48:27.969Z,5.53
2023-02-17T12:49:56.622Z,5.40
2023-02-17T12:51:24.814Z,5.07
2023-02-17T12:52:51.910Z,4.97
2023-02-17T12:54:20.101Z,5.25
2023-02-17T12:55:48.379Z,5.60
2023-02-17T12:57:16.413Z,5.47
2023-02-17T12:58:39.883Z,5.53
2023-02-17T13:00:07.659Z,5.28
2023-02-17T13:01:33.191Z,5.38
2023-02-17T13:02:59.675Z,5.18
2023-02-17T13:04:25.152Z,4.55
2023-02-17T13:05:52.996Z,4.82
2023-02-17T13:07:33.510Z,4.45
2023-02-17T13:08:59.192Z,4.45
2023-02-17T13:10:32.769Z,5.10
2023-02-17T13:11:56.239Z,4.82
2023-02-17T13:13:29.137Z,4.55
2023-02-17T13:14:53.794Z,4.28
2023-02-17T13:16:17.175Z,4.75
2023-02-17T13:17:42.150Z,4.38
2023-02-17T13:19:09.594Z,4.55
2023-02-17T13:20:53.732Z,4.47
2023-02-17T13:22:24.920Z,3.63
2023-02-17T13:24:00.168Z,3.60
2023-02-17T13:25:31.285Z,3.67
2023-02-17T13:26:54.653Z,3.65
2023-02-17T13:28:32.197Z,3.50
2023-02-17T13:30:01.435Z,4.07
2023-02-17T13:31:26.857Z,4.13
2023-02-17T13:33:01.493Z,3.88
2023-02-17T13:34:27.266Z,3.47
2023-02-17T13:35:51.673Z,3.92
2023-02-17T13:37:22.222Z,3.20
2023-02-17T13:39:01.400Z,3.00
2023-02-17T13:40:36.106Z,4.00
2023-02-17T13:42:00.991Z,3.58
2023-02-17T13:43:24.612Z,4.03
2023-02-17T13:44:50.179Z,3.97
2023-02-17T13:46:16.647Z,3.97
2023-02-17T13:47:41.099Z,3.63
2023-02-17T13:49:06.935Z,3.83
2023-02-17T13:50:35.069Z,3.65
2023-02-17T13:52:09.654Z,3.75
2023-02-17T13:53:37.618Z,3.67
2023-02-17T13:55:04.188Z,3.47
2023-02-17T13:56:30.220Z,3.15
2023-02-17T13:57:55.021Z,3.40
2023-02-17T13:59:24.698Z,3.50
2023-02-17T14:00:48.092Z,3.17
2023-02-17T14:02:35.022Z,2.97
2023-02-17T14:04:00.144Z,3.95
2023-02-17T14:05:28.598Z,6.93
2023-02-17T14:06:52.623Z,4.35
2023-02-17T14:08:20.186Z,3.28
2023-02-17T14:09:43.604Z,2.72
2023-02-17T14:11:12.569Z,2.80
2023-02-17T14:12:36.122Z,3.45
2023-02-17T14:13:59.673Z,2.90
2023-02-17T14:15:25.619Z,3.10
2023-02-17T14:16:59.050Z,3.42
2023-02-17T14:18:34.979Z,1.70
2023-02-17T14:19:58.552Z,2.65
2023-02-17T14:21:26.539Z,2.83
2023-02-17T14:23:03.429Z,3.40
2023-02-17T14:24:29.166Z,2.72
2023-02-17T14:25:52.812Z,3.10
2023-02-17T14:27:17.615Z,2.80
2023-02-17T14:28:41.050Z,2.85
2023-02-17T14:30:05.703Z,3.05
2023-02-17T14:31:29.925Z,3.15
2023-02-17T14:33:03.597Z,3.85
2023-02-17T14:34:29.396Z,4.20
2023-02-17T14:35:54.308Z,3.08
2023-02-17T14:37:22.370Z,3.47
2023-02-17T14:38:45.809Z,3.95
2023-02-17T14:40:17.965Z,3.22
2023-02-17T14:41:41.366Z,3.35
2023-02-17T14:43:06.150Z,3.20
2023-02-17T14:44:29.532Z,3.22
2023-02-17T14:45:54.422Z,3.25
2023-02-17T14:47:17.845Z,3.10
2023-02-17T14:48:41.276Z,3.83
2023-02-17T14:50:04.709Z,3.30
2023-02-17T14:51:34.759Z,3.38
2023-02-17T14:52:58.560Z,4.00
2023-02-17T14:54:22.020Z,3.67
2023-02-17T14:55:48.203Z,3.42
2023-02-17T14:57:15.545Z,4.18
2023-02-17T14:58:40.315Z,4.20
2023-02-17T15:00:04.152Z,4.28
2023-02-17T15:01:27.653Z,3.90
2023-02-17T15:02:51.455Z,4.43
2023-02-17T15:04:14.866Z,4.05
2023-02-17T15:05:38.285Z,3.30
2023-02-17T15:07:01.680Z,4.50
2023-02-17T15:08:32.871Z,5.70
2023-02-17T15:09:56.618Z,5.05
2023-02-17T15:11:24.740Z,4.78
2023-02-17T15:12:48.618Z,4.40
2023-02-17T15:14:15.854Z,5.00
2023-02-17T15:15:43.201Z,5.05
2023-02-17T15:17:06.592Z,4.28
2023-02-17T15:18:30.060Z,5.00
2023-02-17T15:19:55.067Z,4.75
2023-02-17T15:21:27.075Z,4.45
2023-02-17T15:22:52.778Z,4.78
2023-02-17T15:24:18.050Z,4.25
2023-02-17T15:25:41.682Z,4.57
2023-02-17T15:27:05.825Z,5.20
2023-02-17T15:28:29.251Z,4.60
2023-02-17T15:29:54.049Z,5.05
2023-02-17T15:31:23.264Z,4.93
2023-02-17T15:32:47.439Z,5.38
2023-02-17T15:34:14.624Z,5.13
2023-02-17T15:35:38.042Z,5.13
2023-02-17T15:37:02.302Z,4.60
2023-02-17T15:38:27.173Z,4.32
2023-02-17T15:39:50.610Z,5.40
2023-02-17T15:41:15.980Z,5.50
2023-02-17T15:42:39.387Z,5.18
2023-02-17T15:44:03.568Z,5.55
2023-02-17T15:45:28.467Z,5.35
2023-02-17T15:46:53.009Z,5.32
2023-02-17T15:48:22.312Z,6.15
2023-02-17T15:49:45.985Z,5.30
2023-02-17T15:51:12.422Z,6.00
2023-02-17T15:52:35.829Z,5.43
2023-02-17T15:54:00.376Z,4.50
2023-02-17T15:55:24.546Z,5.30
2023-02-17T15:56:50.630Z,5.80
2023-02-17T15:58:16.792Z,5.93
2023-02-17T15:59:40.276Z,5.40
2023-02-17T16:01:05.693Z,6.10
2023-02-17T16:02:29.231Z,5.20
2023-02-17T16:03:52.655Z,5.07
2023-02-17T16:05:18.741Z,5.30
2023-02-17T16:06:42.744Z,5.32
2023-02-17T16:08:06.347Z,5.72
2023-02-17T16:09:29.812Z,5.53
2023-02-17T16:10:53.836Z,6.13
2023-02-17T16:12:18.867Z,5.75
2023-02-17T16:13:42.698Z,5.75
2023-02-17T16:15:07.449Z,5.55
2023-02-17T16:16:34.787Z,5.78
2023-02-17T16:17:58.835Z,6.10
2023-02-17T16:19:22.310Z,5.35
2023-02-17T16:20:45.723Z,4.97
2023-02-17T16:22:09.132Z,5.20
2023-02-17T16:23:32.717Z,6.00
2023-02-17T16:24:56.120Z,5.07
2023-02-17T16:26:26.148Z,5.63
2023-02-17T16:27:52.515Z,6.28
2023-02-17T16:29:17.656Z,5.55
2023-02-17T16:30:41.103Z,5.57
2023-02-17T16:32:06.026Z,6.60
2023-02-17T16:33:30.385Z,6.18
2023-02-17T16:34:53.774Z,5.78
2023-02-17T16:36:18.739Z,4.90
2023-02-17T16:37:42.254Z,5.10
2023-02-17T16:39:12.845Z,5.90
2023-02-17T16:40:37.604Z,4.80
2023-02-17T16:42:01.024Z,4.90
2023-02-17T16:43:27.533Z,5.45
2023-02-17T16:44:50.952Z,5.10
2023-02-17T16:46:21.664Z,4.88
2023-02-17T16:47:50.338Z,4.32
2023-02-17T16:49:19.683Z,4.20
2023-02-17T16:50:43.106Z,4.03
2023-02-17T16:52:09.032Z,4.43
2023-02-17T16:53:32.458Z,3.85
2023-02-17T16:54:56.233Z,3.80
2023-02-17T16:56:22.802Z,3.83
2023-02-17T16:57:46.761Z,3.47
2023-02-17T16:59:14.473Z,4.10
2023-02-17T17:00:38.288Z,3.58
2023-02-17T17:02:01.790Z,4.40
2023-02-17T17:03:26.685Z,4.50
2023-02-17T17:04:50.122Z,4.18
2023-02-17T17:06:20.526Z,4.38
2023-02-17T17:07:44.353Z,3.65
2023-02-17T17:09:07.786Z,3.60
2023-02-17T17:10:32.487Z,3.63
2023-02-17T17:11:55.941Z,3.30
2023-02-17T17:13:19.393Z,3.70
2023-02-17T17:14:46.915Z,3.55
2023-02-17T17:16:40.180Z,3.55
2023-02-17T17:18:05.692Z,3.55
2023-02-17T17:19:29.484Z,3.70
2023-02-17T17:20:52.883Z,3.47
2023-02-17T17:22:16.279Z,3.30
2023-02-17T17:23:39.946Z,3.95
2023-02-17T17:25:03.362Z,3.72
2023-02-17T17:26:30.852Z,3.60
2023-02-17T17:27:54.743Z,3.22
2023-02-17T17:29:19.555Z,4.05
2023-02-17T17:30:42.954Z,3.28
2023-02-17T17:32:06.675Z,3.13
2023-02-17T17:33:30.107Z,3.30
2023-02-17T17:34:55.146Z,2.92
2023-02-17T17:36:26.009Z,3.25
2023-02-17T17:37:49.674Z,3.70
2023-02-17T17:39:17.177Z,2.95
2023-02-17T17:40:49.132Z,3.30
2023-02-17T17:42:13.693Z,3.30
2023-02-17T17:43:37.094Z,3.20
2023-02-17T17:45:00.503Z,2.92
2023-02-17T17:46:25.263Z,3.20
2023-02-17T17:47:48.693Z,3.17
2023-02-17T17:49:14.704Z,2.72
2023-02-17T17:50:39.473Z,3.17
2023-02-17T17:52:02.922Z,2.92
2023-02-17T17:53:26.422Z,2.70
2023-02-17T17:54:49.831Z,2.80
2023-02-17T17:56:16.100Z,2.67
2023-02-17T17:57:39.599Z,2.55
2023-02-17T17:59:04.070Z,3.08
2023-02-17T18:00:27.615Z,2.97
2023-02-17T18:01:51.059Z,2.50
2023-02-17T18:03:14.641Z,2.53
2023-02-17T18:04:38.057Z,2.67
2023-02-17T18:06:03.073Z,2.60
2023-02-17T18:07:27.195Z,3.10
2023-02-17T18:08:51.308Z,2.50
2023-02-17T18:10:15.280Z,2.45
2023-02-17T18:11:39.079Z,1.88
2023-02-17T18:13:02.588Z,2.42
2023-02-17T18:14:24.994Z,2.88
2023-02-17T18:15:49.456Z,2.30
2023-02-17T18:17:14.096Z,2.22
2023-02-17T18:18:37.924Z,2.53
2023-02-17T18:20:01.549Z,2.58
2023-02-17T18:21:25.475Z,2.47
2023-02-17T18:22:48.864Z,2.30
2023-02-17T18:24:12.258Z,2.47
2023-02-17T18:25:35.671Z,2.55
2023-02-17T18:26:59.184Z,2.40
2023-02-17T18:28:22.612Z,2.47
2023-02-17T18:29:46.366Z,2.70
2023-02-17T18:31:11.304Z,2.55
2023-02-17T18:32:34.857Z,2.15
2023-02-17T18:33:58.307Z,2.22
2023-02-17T18:35:22.125Z,2.55
2023-02-17T18:36:46.922Z,2.17
2023-02-17T18:38:10.370Z,2.00
2023-02-17T18:39:33.790Z,1.67
2023-02-17T18:40:57.370Z,2.00
2023-02-17T18:42:20.746Z,1.65
2023-02-17T18:43:45.739Z,1.90
2023-02-17T18:45:10.365Z,1.65
2023-02-17T18:46:34.357Z,2.35
2023-02-17T18:47:57.827Z,1.58
2023-02-17T18:49:21.097Z,1.35
2023-02-17T18:50:44.481Z,1.25
2023-02-17T18:52:09.363Z,1.30
2023-02-17T18:53:32.781Z,1.45
2023-02-17T18:54:57.006Z,1.35
2023-02-17T18:56:22.798Z,1.80
2023-02-17T18:57:46.392Z,2.05
2023-02-17T18:59:09.797Z,2.60
2023-02-17T19:00:33.384Z,1.90
2023-02-17T19:01:56.784Z,2.08
2023-02-17T19:03:19.224Z,1.92
2023-02-17T19:04:42.589Z,2.42
2023-02-17T19:06:10.578Z,2.80
2023-02-17T19:07:35.389Z,3.50
2023-02-17T19:08:59.141Z,1.75
2023-02-17T19:10:23.048Z,2.08
2023-02-17T19:11:48.718Z,1.90
2023-02-17T19:13:12.271Z,1.35
2023-02-17T19:14:35.689Z,1.33
2023-02-17T19:16:07.827Z,1.67
2023-02-17T19:17:33.009Z,2.08
2023-02-17T19:18:57.347Z,1.27
2023-02-17T19:20:21.155Z,1.63
2023-02-17T19:21:44.580Z,1.40
2023-02-17T19:23:09.612Z,1.95
2023-02-17T19:24:33.019Z,1.80
2023-02-17T19:25:56.585Z,1.55
2023-02-17T19:27:20.292Z,1.08
2023-02-17T19:28:43.813Z,1.20
2023-02-17T19:30:08.838Z,1.92
2023-02-17T19:31:32.429Z,1.00
2023-02-17T19:32:55.903Z,1.63
2023-02-17T19:34:20.263Z,1.60
2023-02-17T19:35:44.069Z,1.52
2023-02-17T19:37:07.629Z,1.10
2023-02-17T19:38:32.839Z,0.70
2023-02-17T19:39:57.252Z,0.93
2023-02-17T19:41:21.012Z,1.58
2023-02-17T19:42:43.467Z,1.10
2023-02-17T19:44:07.202Z,0.80
2023-02-17T19:45:30.737Z,1.30
2023-02-17T19:46:54.627Z,0.95
2023-02-17T19:48:18.063Z,1.42
2023-02-17T19:49:41.541Z,1.30
2023-02-17T19:51:08.705Z,1.15
2023-02-17T19:52:32.385Z,0.82
2023-02-17T19:53:58.692Z,0.88
2023-02-17T19:55:22.329Z,1.05
2023-02-17T19:56:45.725Z,1.63
2023-02-17T19:58:09.097Z,0.90
2023-02-17T19:59:33.656Z,1.23
2023-02-17T20:00:57.660Z,0.90
2023-02-17T20:02:21.150Z,1.17
2023-02-17T20:03:44.770Z,1.40
2023-02-17T20:05:08.729Z,0.85
2023-02-17T20:06:34.765Z,1.67
2023-02-17T20:07:58.280Z,1.38
2023-02-17T20:09:24.189Z,0.70
2023-02-17T20:10:47.799Z,1.25
2023-02-17T20:12:11.183Z,1.83
2023-02-17T20:13:46.106Z,1.10
2023-02-17T20:15:10.676Z,1.40
2023-02-17T20:16:34.226Z,1.20
2023-02-17T20:17:57.647Z,1.80
2023-02-17T20:19:45.646Z,1.13
2023-02-17T20:21:10.311Z,1.05
2023-02-17T20:22:33.855Z,1.30
2023-02-17T20:23:57.581Z,1.20
2023-02-17T20:25:22.383Z,1.38
2023-02-17T20:26:47.418Z,1.25
2023-02-17T20:28:10.836Z,1.00
2023-02-17T20:29:35.378Z,1.58
2023-02-17T20:30:58.855Z,1.60
2023-02-17T20:32:22.373Z,1.38
2023-02-17T20:33:46.689Z,2.13
2023-02-17T20:35:13.149Z,1.30
2023-02-17T20:36:36.604Z,1.40
2023-02-17T20:38:00.507Z,2.65
2023-02-17T20:39:25.689Z,1.83
2023-02-17T20:40:50.448Z,1.25
2023-02-17T20:42:17.160Z,1.08
2023-02-17T20:43:40.593Z,1.95
2023-02-17T20:45:05.567Z,1.77
2023-02-17T20:46:29.865Z,2.03
2023-02-17T20:47:53.381Z,1.70
2023-02-17T20:49:16.870Z,1.48
2023-02-17T20:50:40.625Z,1.45
2023-02-17T20:52:05.755Z,1.48
2023-02-17T20:53:29.259Z,1.38
2023-02-17T20:54:52.685Z,1.33
2023-02-17T20:56:19.830Z,1.35
2023-02-17T20:57:43.236Z,0.98
2023-02-17T20:59:10.693Z,1.52
2023-02-17T21:00:34.204Z,1.20
2023-02-17T21:02:00.260Z,1.20
2023-02-17T21:03:23.668Z,1.98
2023-02-17T21:04:48.100Z,1.83
2023-02-17T21:06:20.644Z,1.30
2023-02-17T21:07:44.041Z,1.35
2023-02-17T21:09:09.081Z,2.20
2023-02-17T21:10:34.054Z,1.48
2023-02-17T21:11:58.876Z,1.77
2023-02-17T21:13:22.998Z,1.42
2023-02-17T21:14:46.451Z,2.50
2023-02-17T21:16:14.320Z,3.58
2023-02-17T21:17:37.911Z,1.98
2023-02-17T21:19:02.641Z,1.35
2023-02-17T21:20:26.462Z,1.73
2023-02-17T21:21:49.979Z,1.40
2023-02-17T21:23:12.470Z,2.53
2023-02-17T21:24:36.044Z,2.05
2023-02-17T21:25:58.599Z,2.25
2023-02-17T21:27:23.405Z,2.25
2023-02-17T21:28:47.325Z,3.17
2023-02-17T21:30:12.051Z,2.03
2023-02-17T21:31:36.053Z,2.45
2023-02-17T21:33:00.296Z,2.17
2023-02-17T21:34:23.802Z,1.73
2023-02-17T21:35:48.826Z,2.15
2023-02-17T21:37:12.357Z,3.53
2023-02-17T21:38:36.148Z,6.15
2023-02-17T21:39:59.933Z,4.63
2023-02-17T21:41:26.386Z,1.77
2023-02-17T21:43:08.610Z,3.05
2023-02-17T21:44:49.546Z,2.25
2023-02-17T21:46:13.547Z,2.70
2023-02-17T21:47:37.102Z,1.98
2023-02-17T21:49:01.592Z,4.88
2023-02-17T21:50:25.130Z,1.75
2023-02-17T21:51:48.638Z,2.60
2023-02-17T21:53:11.031Z,3.47
2023-02-17T21:54:34.711Z,1.60
2023-02-17T21:56:01.192Z,1.70
2023-02-17T21:57:24.576Z,2.17
2023-02-17T21:58:50.658Z,2.80
2023-02-17T22:00:15.502Z,1.75
2023-02-17T22:01:39.021Z,2.20
2023-02-17T22:03:02.455Z,1.38
2023-02-17T22:04:28.150Z,2.20
2023-02-17T22:05:51.852Z,1.15
2023-02-17T22:07:16.909Z,2.38
2023-02-17T22:08:40.624Z,3.35
2023-02-17T22:10:06.631Z,1.67
2023-02-17T22:11:31.995Z,1.38
2023-02-17T22:12:56.203Z,1.50
2023-02-17T22:14:22.736Z,1.77
2023-02-17T22:15:45.262Z,1.42
2023-02-17T22:17:08.654Z,1.38
2023-02-17T22:20:23.305Z,2.00
2023-02-17T22:21:47.174Z,1.77
2023-02-17T22:23:10.561Z,1.90
2023-02-17T23:08:39.984Z,1.83
2023-02-17T23:10:03.584Z,3.28
2023-02-17T23:11:45.152Z,1.73
2023-02-17T23:13:08.817Z,1.90
2023-02-17T23:14:37.986Z,2.22
2023-02-17T23:16:00.419Z,2.25
2023-02-17T23:17:23.801Z,1.60
2023-02-17T23:18:46.221Z,1.60
2023-02-17T23:20:11.075Z,1.63
2023-02-17T23:21:33.633Z,1.40
2023-02-17T23:22:56.997Z,2.05
2023-02-17T23:24:21.938Z,1.75
2023-02-17T23:25:50.144Z,1.60
2023-02-17T23:27:14.441Z,1.77
2023-02-17T23:28:36.866Z,1.92
2023-02-17T23:30:00.720Z,6.15
2023-02-17T23:31:23.379Z,2.20
2023-02-17T23:32:49.562Z,1.75
2023-02-17T23:34:14.145Z,1.80
2023-02-17T23:35:39.807Z,2.65
2023-02-17T23:37:03.355Z,2.58
2023-02-17T23:38:25.780Z,2.45
2023-02-17T23:39:50.535Z,2.05
2023-02-17T23:41:13.982Z,3.67
2023-02-17T23:42:37.664Z,4.53
2023-02-17T23:44:01.501Z,2.90
2023-02-17T23:45:24.963Z,2.40
2023-02-17T23:46:48.529Z,3.50
2023-02-17T23:48:24.889Z,1.92
2023-02-17T23:49:48.249Z,1.88
2023-02-17T23:51:11.703Z,2.28
2023-02-17T23:52:34.683Z,2.67
2023-02-17T23:53:58.155Z,2.55
2023-02-17T23:55:21.927Z,2.70
2023-02-17T23:56:45.521Z,1.88
2023-02-17T23:58:07.949Z,2.92
2023-02-17T23:59:31.473Z,2.92
